Estación de Algarrobo Bajo INIA

Ultimos registro cada 15 minutos 21
Estación Fecha / Hora Temperatura Humedad Lluvia Velocidad Dirección Radiación Presion
21 Algarrobo Bajo INIA 04-09-2026 05:00 9,2 93,3 0 0,3 349 0 0
20 Algarrobo Bajo INIA 04-09-2026 04:45 9,3 93,4 0 0 350 0 0
19 Algarrobo Bajo INIA 04-09-2026 04:30 9,6 91,9 0 0 0 0 0
18 Algarrobo Bajo INIA 04-09-2026 04:15 9,6 91,7 0 0 0 0 0
17 Algarrobo Bajo INIA 04-09-2026 04:00 10,1 91,2 0 0 0 0 0
16 Algarrobo Bajo INIA 04-09-2026 03:45 9,8 92,1 0 0 0 0 0
15 Algarrobo Bajo INIA 04-09-2026 03:30 10,3 90,2 0 0 0 0 0
14 Algarrobo Bajo INIA 04-09-2026 03:15 10,2 91,1 0 0 0 0 0
13 Algarrobo Bajo INIA 04-09-2026 03:00 10,6 88,8 0 0 0 0 0
12 Algarrobo Bajo INIA 04-09-2026 02:45 11 88,4 0 0 259 0 0
11 Algarrobo Bajo INIA 04-09-2026 02:30 11 88,6 0 0,4 269 0 0
10 Algarrobo Bajo INIA 04-09-2026 02:15 10,9 88,5 0 0 0 0 0
9 Algarrobo Bajo INIA 04-09-2026 02:00 11,2 87,5 0 0 0 0 0
8 Algarrobo Bajo INIA 04-09-2026 01:45 11,4 86,8 0 0,4 259 0 0
7 Algarrobo Bajo INIA 04-09-2026 01:30 11,7 86 0 0,6 250 0 0
6 Algarrobo Bajo INIA 04-09-2026 01:15 11,8 84,7 0 0,5 250 0 0
5 Algarrobo Bajo INIA 04-09-2026 01:00 12 83,1 0 0,4 242 0 0
4 Algarrobo Bajo INIA 04-09-2026 00:45 11,9 81,7 0 0 0 0 0
3 Algarrobo Bajo INIA 04-09-2026 00:30 12 81,3 0 0,1 271 0,1 0
2 Algarrobo Bajo INIA 04-09-2026 00:15 12,4 80,3 0 0 271 0 0
1 Algarrobo Bajo INIA 04-09-2026 00:00 12,5 79,2 0 0 234 0 0